createdAt,value
2023-05-19T00:01:37.774Z,19.99
2023-05-19T00:04:05.977Z,19.98
2023-05-19T00:06:33.637Z,19.97
2023-05-19T00:09:10.050Z,19.97
2023-05-19T00:11:39.929Z,19.93
2023-05-19T00:14:09.819Z,19.93
2023-05-19T00:16:40.679Z,19.91
2023-05-19T00:19:10.912Z,19.83
2023-05-19T00:21:39.207Z,19.82
2023-05-19T00:24:07.625Z,19.80
2023-05-19T00:26:34.773Z,19.81
2023-05-19T00:29:05.551Z,19.84
2023-05-19T00:31:34.336Z,19.82
2023-05-19T00:34:04.888Z,19.77
2023-05-19T00:36:32.319Z,19.76
2023-05-19T00:38:59.420Z,19.72
2023-05-19T00:41:26.820Z,19.66
2023-05-19T00:43:53.825Z,19.62
2023-05-19T00:46:20.909Z,19.60
2023-05-19T00:48:51.004Z,19.58
2023-05-19T00:51:18.609Z,19.61
2023-05-19T00:53:51.192Z,19.58
2023-05-19T00:56:19.449Z,19.56
2023-05-19T00:58:47.068Z,19.54
2023-05-19T01:01:17.378Z,19.52
2023-05-19T01:03:48.587Z,19.53
2023-05-19T01:06:19.515Z,19.52
2023-05-19T01:08:46.802Z,19.55
2023-05-19T01:11:17.579Z,19.59
2023-05-19T01:13:45.200Z,19.55
2023-05-19T01:16:38.630Z,19.53
2023-05-19T01:19:30.932Z,19.50
2023-05-19T01:22:13.376Z,19.55
2023-05-19T01:24:58.328Z,19.52
2023-05-19T01:27:28.269Z,19.45
2023-05-19T01:30:08.327Z,19.48
2023-05-19T01:32:40.181Z,19.49
2023-05-19T01:35:09.960Z,19.44
2023-05-19T01:37:41.468Z,19.46
2023-05-19T01:40:10.786Z,19.37
2023-05-19T01:42:44.333Z,19.40
2023-05-19T01:45:14.226Z,19.37
2023-05-19T01:47:44.780Z,19.37
2023-05-19T01:50:13.326Z,19.34
2023-05-19T01:52:40.558Z,19.36
2023-05-19T01:55:08.688Z,19.34
2023-05-19T01:58:14.849Z,19.35
2023-05-19T02:00:46.471Z,19.31
2023-05-19T02:03:35.289Z,19.30
2023-05-19T02:06:39.366Z,19.28
2023-05-19T02:09:16.930Z,19.27
2023-05-19T02:11:55.181Z,19.29
2023-05-19T02:14:38.407Z,19.31
2023-05-19T02:17:06.502Z,19.24
2023-05-19T02:19:40.289Z,19.29
2023-05-19T02:22:07.253Z,19.25
2023-05-19T02:24:34.178Z,19.30
2023-05-19T02:27:01.185Z,19.32
2023-05-19T02:29:28.436Z,19.32
2023-05-19T02:31:55.561Z,19.34
2023-05-19T02:34:23.042Z,19.35
2023-05-19T02:36:50.740Z,19.34
2023-05-19T02:39:17.833Z,19.34
2023-05-19T02:41:45.529Z,19.32
2023-05-19T02:44:12.553Z,19.32
2023-05-19T02:46:39.727Z,19.32
2023-05-19T02:49:06.917Z,19.31
2023-05-19T02:51:33.950Z,19.33
2023-05-19T02:54:00.996Z,19.33
2023-05-19T02:56:28.342Z,19.34
2023-05-19T02:58:55.484Z,19.31
2023-05-19T03:01:23.369Z,19.28
2023-05-19T03:03:50.523Z,19.25
2023-05-19T03:06:18.220Z,19.26
2023-05-19T03:08:45.566Z,19.24
2023-05-19T03:11:12.470Z,19.24
2023-05-19T03:13:39.449Z,19.19
2023-05-19T03:16:08.529Z,19.14
2023-05-19T03:18:36.243Z,19.14
2023-05-19T03:21:03.379Z,19.02
2023-05-19T03:23:30.353Z,19.06
2023-05-19T03:25:57.985Z,19.00
2023-05-19T03:28:26.733Z,19.02
2023-05-19T03:30:53.905Z,19.02
2023-05-19T03:33:25.269Z,19.02
2023-05-19T03:35:53.305Z,19.00
2023-05-19T03:38:20.861Z,19.01
2023-05-19T03:40:56.280Z,18.96
2023-05-19T03:43:23.596Z,18.92
2023-05-19T03:45:56.943Z,18.89
2023-05-19T03:48:42.492Z,18.89
2023-05-19T03:51:24.533Z,18.84
2023-05-19T03:53:56.100Z,18.86
2023-05-19T03:56:25.159Z,18.79
2023-05-19T03:58:52.151Z,18.83
2023-05-19T04:01:19.130Z,18.80
2023-05-19T04:03:46.783Z,18.84
2023-05-19T04:06:13.787Z,18.77
2023-05-19T04:08:40.805Z,18.77
2023-05-19T04:11:07.824Z,18.72
2023-05-19T04:13:35.551Z,18.68
2023-05-19T04:16:02.734Z,18.67
2023-05-19T04:18:30.083Z,18.64
2023-05-19T04:20:57.080Z,18.66
2023-05-19T04:23:25.536Z,18.68
2023-05-19T04:25:52.656Z,18.70
2023-05-19T04:28:19.666Z,18.62
2023-05-19T04:30:46.859Z,18.68
2023-05-19T04:33:14.017Z,18.64
2023-05-19T04:35:43.944Z,18.66
2023-05-19T04:38:12.251Z,18.67
2023-05-19T04:40:40.689Z,18.63
2023-05-19T04:43:09.578Z,18.67
2023-05-19T04:45:37.844Z,18.67
2023-05-19T04:48:06.268Z,18.68
2023-05-19T04:50:34.396Z,18.68
2023-05-19T04:53:01.618Z,18.70
2023-05-19T04:55:29.004Z,18.68
2023-05-19T04:57:56.197Z,18.71
2023-05-19T05:00:23.446Z,18.72
2023-05-19T05:02:58.651Z,18.72
2023-05-19T05:05:28.381Z,18.72
2023-05-19T05:07:55.786Z,18.70
2023-05-19T05:10:24.956Z,18.64
2023-05-19T05:12:52.371Z,18.67
2023-05-19T05:15:20.370Z,18.67
2023-05-19T05:17:49.849Z,18.68
2023-05-19T05:20:17.548Z,18.61
2023-05-19T05:22:44.849Z,18.62
2023-05-19T05:25:14.196Z,18.66
2023-05-19T05:27:42.513Z,18.67
2023-05-19T05:30:09.922Z,18.69
2023-05-19T05:32:38.383Z,18.62
2023-05-19T05:35:11.238Z,18.68
2023-05-19T05:37:39.056Z,18.65
2023-05-19T05:40:07.224Z,18.67
2023-05-19T05:42:35.291Z,18.71
2023-05-19T05:45:03.517Z,18.72
2023-05-19T05:47:31.896Z,18.72
2023-05-19T05:49:59.924Z,18.78
2023-05-19T05:52:30.486Z,18.83
2023-05-19T05:54:59.357Z,18.77
2023-05-19T05:57:27.157Z,18.77
2023-05-19T05:59:54.310Z,18.84
2023-05-19T06:02:22.124Z,18.82
2023-05-19T06:04:49.402Z,18.87
2023-05-19T06:07:17.461Z,18.88
2023-05-19T06:09:45.276Z,18.81
2023-05-19T06:12:12.491Z,18.84
2023-05-19T06:14:45.684Z,18.84
2023-05-19T06:17:24.142Z,18.85
2023-05-19T06:19:52.381Z,18.89
2023-05-19T06:22:19.398Z,18.94
2023-05-19T06:24:46.467Z,18.97
2023-05-19T06:27:14.417Z,19.03
2023-05-19T06:29:41.474Z,19.07
2023-05-19T06:32:09.431Z,19.15
2023-05-19T06:34:38.413Z,19.14
2023-05-19T06:37:05.780Z,19.25
2023-05-19T06:39:33.677Z,19.33
2023-05-19T06:42:01.150Z,19.41
2023-05-19T06:44:53.369Z,19.50
2023-05-19T06:47:20.810Z,19.62
2023-05-19T06:49:51.855Z,19.76
2023-05-19T06:52:18.888Z,19.87
2023-05-19T06:54:45.985Z,19.98
2023-05-19T06:57:12.997Z,20.12
2023-05-19T06:59:43.823Z,20.24
2023-05-19T07:02:11.650Z,20.33
2023-05-19T07:04:40.200Z,20.41
2023-05-19T07:07:08.184Z,20.60
2023-05-19T07:09:36.438Z,20.94
2023-05-19T07:12:03.953Z,21.30
2023-05-19T07:14:31.213Z,21.76
2023-05-19T07:16:58.280Z,22.32
2023-05-19T07:19:25.520Z,22.84
2023-05-19T07:21:55.078Z,23.49
2023-05-19T07:24:22.363Z,24.04
2023-05-19T07:26:49.439Z,24.59
2023-05-19T07:29:16.482Z,25.06
2023-05-19T07:31:43.552Z,25.60
2023-05-19T07:34:10.639Z,26.16
2023-05-19T07:36:37.736Z,26.65
2023-05-19T07:39:04.952Z,27.00
2023-05-19T07:41:32.809Z,27.38
2023-05-19T07:44:00.826Z,27.80
2023-05-19T07:46:27.953Z,28.29
2023-05-19T07:48:54.894Z,28.87
2023-05-19T07:51:21.815Z,29.24
2023-05-19T07:53:48.936Z,29.63
2023-05-19T07:56:16.102Z,30.07
2023-05-19T07:58:43.171Z,30.35
2023-05-19T08:01:10.321Z,30.84
2023-05-19T08:03:37.500Z,31.07
2023-05-19T08:06:04.863Z,30.95
2023-05-19T08:08:33.454Z,30.67
2023-05-19T08:11:04.714Z,30.45
2023-05-19T08:13:31.870Z,30.23
2023-05-19T08:16:00.173Z,30.63
2023-05-19T08:18:27.549Z,30.91
2023-05-19T08:20:54.711Z,29.75
2023-05-19T08:23:22.493Z,29.11
2023-05-19T08:25:49.534Z,27.91
2023-05-19T08:28:16.610Z,26.93
2023-05-19T08:30:43.837Z,26.26
2023-05-19T08:33:10.810Z,25.17
2023-05-19T08:35:38.693Z,24.47
2023-05-19T08:38:05.851Z,23.38
2023-05-19T08:40:35.348Z,22.90
2023-05-19T08:43:02.872Z,22.34
2023-05-19T08:45:31.273Z,21.89
2023-05-19T08:47:58.496Z,21.67
2023-05-19T08:50:36.827Z,21.53
2023-05-19T08:53:33.015Z,21.06
2023-05-19T08:56:33.856Z,20.78
2023-05-19T08:59:02.424Z,20.78
2023-05-19T09:01:30.644Z,20.79
2023-05-19T09:03:58.577Z,20.60
2023-05-19T09:06:26.976Z,20.35
2023-05-19T09:08:56.663Z,20.11
2023-05-19T09:11:23.752Z,20.22
2023-05-19T09:13:50.866Z,20.22
2023-05-19T09:16:18.224Z,20.37
2023-05-19T09:18:58.128Z,20.50
2023-05-19T09:21:31.918Z,20.31
2023-05-19T09:24:04.450Z,20.35
2023-05-19T09:26:42.712Z,20.15
2023-05-19T09:29:18.717Z,20.16
2023-05-19T09:31:54.125Z,20.28
2023-05-19T09:34:23.898Z,20.40
2023-05-19T09:36:52.005Z,20.38
2023-05-19T09:39:20.964Z,20.49
2023-05-19T09:41:52.377Z,20.51
2023-05-19T09:44:24.315Z,20.32
2023-05-19T09:46:53.302Z,20.08
2023-05-19T09:49:21.977Z,20.05
2023-05-19T09:51:55.776Z,19.94
2023-05-19T09:54:24.026Z,19.90
2023-05-19T09:56:58.907Z,20.07
2023-05-19T09:59:29.018Z,20.05
2023-05-19T10:01:59.948Z,19.79
2023-05-19T10:04:30.382Z,19.83
2023-05-19T10:07:01.710Z,19.69
2023-05-19T10:09:29.882Z,19.62
2023-05-19T10:11:58.397Z,19.46
2023-05-19T10:14:27.218Z,19.48
2023-05-19T10:16:58.366Z,19.41
2023-05-19T10:19:27.242Z,19.41
2023-05-19T10:21:55.099Z,19.71
2023-05-19T10:24:22.498Z,19.72
2023-05-19T10:26:58.649Z,19.89
2023-05-19T10:29:38.579Z,20.09
2023-05-19T10:32:11.801Z,20.16
2023-05-19T10:34:57.582Z,20.34
2023-05-19T10:37:55.613Z,20.51
2023-05-19T10:40:33.331Z,20.40
2023-05-19T10:43:29.495Z,20.31
2023-05-19T10:45:58.544Z,20.14
2023-05-19T10:48:25.628Z,20.37
2023-05-19T10:50:56.873Z,20.37
2023-05-19T10:53:31.395Z,20.39
2023-05-19T10:56:02.836Z,20.36
2023-05-19T10:58:45.033Z,20.05
2023-05-19T11:01:17.147Z,20.03
2023-05-19T11:03:55.007Z,19.96
2023-05-19T11:06:33.134Z,19.81
2023-05-19T11:09:09.074Z,19.59
2023-05-19T11:11:48.748Z,19.74
2023-05-19T11:14:24.204Z,19.70
2023-05-19T11:16:59.726Z,19.53
2023-05-19T11:19:31.427Z,19.71
2023-05-19T11:22:12.357Z,19.49
2023-05-19T11:24:44.834Z,19.55
2023-05-19T11:27:28.341Z,19.40
2023-05-19T11:29:57.262Z,19.43
2023-05-19T11:32:27.704Z,19.44
2023-05-19T11:34:55.915Z,19.30
2023-05-19T11:37:23.012Z,19.25
2023-05-19T11:39:50.843Z,19.34
2023-05-19T11:42:17.877Z,19.48
2023-05-19T11:44:48.616Z,19.47
2023-05-19T11:47:17.465Z,19.48
2023-05-19T11:49:52.110Z,19.53
2023-05-19T11:52:22.485Z,19.68
2023-05-19T11:54:50.371Z,19.61
2023-05-19T11:57:17.749Z,19.76
2023-05-19T11:59:45.888Z,19.72
2023-05-19T12:02:14.089Z,19.65
2023-05-19T12:04:43.924Z,19.50
2023-05-19T12:07:17.779Z,19.50
2023-05-19T12:09:48.291Z,19.62
2023-05-19T12:12:20.332Z,19.82
2023-05-19T12:14:48.986Z,19.99
2023-05-19T12:17:19.825Z,20.21
2023-05-19T12:19:51.055Z,20.38
2023-05-19T12:22:18.528Z,20.54
2023-05-19T12:24:47.309Z,20.70
2023-05-19T12:27:19.697Z,20.86
2023-05-19T12:29:54.459Z,20.96
2023-05-19T12:32:29.002Z,21.02
2023-05-19T12:34:56.887Z,21.11
2023-05-19T12:37:27.949Z,20.98
2023-05-19T12:39:56.415Z,21.00
2023-05-19T12:42:24.399Z,20.88
2023-05-19T12:44:52.742Z,20.92
2023-05-19T12:47:21.203Z,20.94
2023-05-19T12:50:13.660Z,20.88
2023-05-19T12:52:48.402Z,20.94
2023-05-19T12:55:16.824Z,20.90
2023-05-19T12:57:51.780Z,20.83
2023-05-19T13:00:21.776Z,20.75
2023-05-19T13:03:01.013Z,20.69
2023-05-19T13:05:29.130Z,20.70
2023-05-19T13:08:05.794Z,20.83
2023-05-19T13:10:35.079Z,20.91
2023-05-19T13:13:03.181Z,21.11
2023-05-19T13:15:34.590Z,21.28
2023-05-19T13:18:03.714Z,21.46
2023-05-19T13:20:31.127Z,21.56
2023-05-19T13:22:58.369Z,21.71
2023-05-19T13:25:25.878Z,21.82
2023-05-19T13:27:54.566Z,21.91
2023-05-19T13:30:22.167Z,21.94
2023-05-19T13:32:49.202Z,22.07
2023-05-19T13:35:16.330Z,22.09
2023-05-19T13:37:43.616Z,22.22
2023-05-19T13:40:11.351Z,22.09
2023-05-19T13:42:38.592Z,22.16
2023-05-19T13:45:06.217Z,22.22
2023-05-19T13:47:33.678Z,22.27
2023-05-19T13:50:00.669Z,22.27
2023-05-19T13:52:29.033Z,22.23
2023-05-19T13:54:57.522Z,22.21
2023-05-19T13:57:25.695Z,22.28
2023-05-19T14:00:01.759Z,22.18
2023-05-19T14:02:39.541Z,22.25
2023-05-19T14:05:07.612Z,22.29
2023-05-19T14:07:35.516Z,22.25
2023-05-19T14:10:04.163Z,22.21
2023-05-19T14:12:41.321Z,22.17
2023-05-19T14:15:11.574Z,22.21
2023-05-19T14:17:38.768Z,22.17
2023-05-19T14:20:06.311Z,22.19
2023-05-19T14:22:33.352Z,22.18
2023-05-19T14:25:00.774Z,22.16
2023-05-19T14:27:27.813Z,22.20
2023-05-19T14:29:54.801Z,22.13
2023-05-19T14:32:22.640Z,22.09
2023-05-19T14:34:52.994Z,22.08
2023-05-19T14:37:20.530Z,22.04
2023-05-19T14:39:47.500Z,22.04
2023-05-19T14:42:14.531Z,22.04
2023-05-19T14:44:41.494Z,22.05
2023-05-19T14:47:08.662Z,22.11
2023-05-19T14:49:35.774Z,22.11
2023-05-19T14:52:02.807Z,22.09
2023-05-19T14:54:30.564Z,22.13
2023-05-19T14:56:57.695Z,22.18
2023-05-19T14:59:25.199Z,22.18
2023-05-19T15:01:52.213Z,22.25
2023-05-19T15:04:19.230Z,22.30
2023-05-19T15:06:48.185Z,22.31
2023-05-19T15:09:19.430Z,22.27
2023-05-19T15:11:46.418Z,22.30
2023-05-19T15:14:13.378Z,22.28
2023-05-19T15:16:40.268Z,22.25
2023-05-19T15:19:07.333Z,22.15
2023-05-19T15:21:34.292Z,22.13
2023-05-19T15:24:01.558Z,22.08
2023-05-19T15:26:29.727Z,22.10
2023-05-19T15:28:56.848Z,22.15
2023-05-19T15:31:23.863Z,22.20
2023-05-19T15:33:51.016Z,22.24
2023-05-19T15:36:18.108Z,22.29
2023-05-19T15:38:45.093Z,22.33
2023-05-19T15:41:12.188Z,22.37
2023-05-19T15:43:39.295Z,22.22
2023-05-19T15:46:06.413Z,22.28
2023-05-19T15:48:33.933Z,22.22
2023-05-19T15:51:01.068Z,22.15
2023-05-19T15:53:28.245Z,22.04
2023-05-19T15:55:57.465Z,21.94
2023-05-19T15:58:24.561Z,21.89
2023-05-19T16:00:52.076Z,21.78
2023-05-19T16:03:19.307Z,21.74
2023-05-19T16:05:46.348Z,21.36
2023-05-19T16:08:13.383Z,21.14
2023-05-19T16:10:40.471Z,21.02
2023-05-19T16:13:07.586Z,21.00
2023-05-19T16:15:34.606Z,20.60
2023-05-19T16:18:01.677Z,20.43
2023-05-19T16:20:29.869Z,20.21
2023-05-19T16:22:57.161Z,20.12
2023-05-19T16:25:25.077Z,20.13
2023-05-19T16:27:52.634Z,20.26
2023-05-19T16:30:19.633Z,20.33
2023-05-19T16:32:46.617Z,20.35
2023-05-19T16:35:13.616Z,20.41
2023-05-19T16:37:40.684Z,20.44
2023-05-19T16:40:08.422Z,20.37
2023-05-19T16:42:35.523Z,20.45
2023-05-19T16:45:02.572Z,20.58
2023-05-19T16:47:29.556Z,20.70
2023-05-19T16:49:56.694Z,20.82
2023-05-19T16:52:23.670Z,20.86
2023-05-19T16:54:50.796Z,20.96
2023-05-19T16:57:17.721Z,20.97
2023-05-19T16:59:44.758Z,20.91
2023-05-19T17:02:11.761Z,20.86
2023-05-19T17:04:38.859Z,20.63
2023-05-19T17:07:06.367Z,20.44
2023-05-19T17:09:33.555Z,20.34
2023-05-19T17:12:00.912Z,20.36
2023-05-19T17:14:27.938Z,20.35
2023-05-19T17:16:54.998Z,20.20
2023-05-19T17:19:22.106Z,20.20
2023-05-19T17:21:49.138Z,20.17
2023-05-19T17:24:16.467Z,20.19
2023-05-19T17:26:43.670Z,20.27
2023-05-19T17:29:10.835Z,20.27
2023-05-19T17:31:37.872Z,20.11
2023-05-19T17:34:04.887Z,20.17
2023-05-19T17:36:31.908Z,20.14
2023-05-19T17:38:58.876Z,20.14
2023-05-19T17:41:26.521Z,20.15
2023-05-19T17:43:53.519Z,20.22
2023-05-19T17:46:20.580Z,20.35
2023-05-19T17:48:47.701Z,20.39
2023-05-19T17:51:15.120Z,20.43
2023-05-19T17:53:42.598Z,20.50
2023-05-19T17:56:12.113Z,20.53
2023-05-19T17:58:39.642Z,20.37
2023-05-19T18:01:07.014Z,20.19
2023-05-19T18:03:34.519Z,20.18
2023-05-19T18:06:01.828Z,20.23
2023-05-19T18:08:30.908Z,20.30
2023-05-19T18:10:58.505Z,20.41
2023-05-19T18:13:26.213Z,20.50
2023-05-19T18:15:53.216Z,20.52
2023-05-19T18:18:20.384Z,20.44
2023-05-19T18:20:48.335Z,20.45
2023-05-19T18:23:15.360Z,20.56
2023-05-19T18:25:49.546Z,20.60
2023-05-19T18:28:16.519Z,20.61
2023-05-19T18:30:43.909Z,20.62
2023-05-19T18:33:11.099Z,20.65
2023-05-19T18:35:38.125Z,20.68
2023-05-19T18:38:05.112Z,20.78
2023-05-19T18:40:32.286Z,20.75
2023-05-19T18:42:59.420Z,20.83
2023-05-19T18:45:26.536Z,20.86
2023-05-19T18:47:53.585Z,20.84
2023-05-19T18:50:20.788Z,20.79
2023-05-19T18:52:47.823Z,20.83
2023-05-19T18:55:14.876Z,20.82
2023-05-19T18:57:42.105Z,20.78
2023-05-19T19:00:09.595Z,20.78
2023-05-19T19:02:36.732Z,20.67
2023-05-19T19:05:05.147Z,20.66
2023-05-19T19:07:32.063Z,20.65
2023-05-19T19:09:59.042Z,20.61
2023-05-19T19:12:26.657Z,20.57
2023-05-19T19:14:54.547Z,20.60
2023-05-19T19:17:21.739Z,20.50
2023-05-19T19:19:49.152Z,20.40
2023-05-19T19:22:16.358Z,20.42
2023-05-19T19:24:43.473Z,20.43
2023-05-19T19:27:10.706Z,20.39
2023-05-19T19:29:37.737Z,20.37
2023-05-19T19:32:05.238Z,20.37
2023-05-19T19:34:32.245Z,20.36
2023-05-19T19:36:59.254Z,20.41
2023-05-19T19:39:26.165Z,20.44
2023-05-19T19:41:55.172Z,20.42
2023-05-19T19:44:24.854Z,20.45
2023-05-19T19:46:52.226Z,20.39
2023-05-19T19:49:19.500Z,20.42
2023-05-19T19:51:46.489Z,20.39
2023-05-19T19:54:13.433Z,20.34
2023-05-19T19:56:40.409Z,20.28
2023-05-19T19:59:07.882Z,20.30
2023-05-19T20:01:34.930Z,20.28
2023-05-19T20:04:02.007Z,20.27
2023-05-19T20:06:29.183Z,20.22
2023-05-19T20:08:56.262Z,20.21
2023-05-19T20:11:24.645Z,20.21
2023-05-19T20:13:52.316Z,20.21
2023-05-19T20:16:19.831Z,20.21
2023-05-19T20:18:47.253Z,20.09
2023-05-19T20:21:14.449Z,20.11
2023-05-19T20:23:41.955Z,20.09
2023-05-19T20:26:12.427Z,20.03
2023-05-19T20:28:40.711Z,20.01
2023-05-19T20:31:07.879Z,19.94
2023-05-19T20:33:35.201Z,19.96
2023-05-19T20:36:02.148Z,19.86
2023-05-19T20:38:29.234Z,19.85
2023-05-19T20:40:56.544Z,19.88
2023-05-19T20:43:23.596Z,19.87
2023-05-19T20:45:51.566Z,19.91
2023-05-19T20:48:18.903Z,19.92
2023-05-19T20:50:46.137Z,19.89
2023-05-19T20:53:13.154Z,19.92
2023-05-19T20:55:40.075Z,19.90
2023-05-19T20:58:07.466Z,19.86
2023-05-19T21:00:34.499Z,19.81
2023-05-19T21:03:01.861Z,19.82
2023-05-19T21:05:29.331Z,19.77
2023-05-19T21:07:59.213Z,19.77
2023-05-19T21:10:26.790Z,19.73
2023-05-19T21:12:53.836Z,19.63
2023-05-19T21:15:23.500Z,19.62
2023-05-19T21:17:50.860Z,19.51
2023-05-19T21:20:17.892Z,19.57
2023-05-19T21:22:45.197Z,19.63
2023-05-19T21:25:12.263Z,19.63
2023-05-19T21:27:40.677Z,19.63
2023-05-19T21:30:09.498Z,19.62
2023-05-19T21:32:36.548Z,19.65
2023-05-19T21:35:05.190Z,19.63
2023-05-19T21:37:32.653Z,19.64
2023-05-19T21:40:05.912Z,19.74
2023-05-19T21:42:33.313Z,19.71
2023-05-19T21:45:00.360Z,19.66
2023-05-19T21:47:28.366Z,19.71
2023-05-19T21:49:55.443Z,19.69
2023-05-19T21:52:23.079Z,19.66
2023-05-19T21:54:52.119Z,19.63
2023-05-19T21:57:19.355Z,19.66
2023-05-19T21:59:46.452Z,19.63
2023-05-19T22:02:13.734Z,19.63
2023-05-19T22:04:41.966Z,19.54
2023-05-19T22:07:11.507Z,19.57
2023-05-19T22:09:38.824Z,19.60
2023-05-19T22:12:06.844Z,19.57
2023-05-19T22:14:36.990Z,19.58
2023-05-19T22:17:04.700Z,19.57
2023-05-19T22:19:32.165Z,19.52
2023-05-19T22:22:09.661Z,19.49
2023-05-19T22:24:39.976Z,19.46
2023-05-19T22:27:10.264Z,19.48
2023-05-19T22:29:39.038Z,19.48
2023-05-19T22:32:09.420Z,19.41
2023-05-19T22:34:36.456Z,19.36
2023-05-19T22:37:03.541Z,19.34
2023-05-19T22:39:30.761Z,19.33
2023-05-19T22:42:03.868Z,19.34
2023-05-19T22:44:31.125Z,19.30
2023-05-19T22:46:58.651Z,19.32
2023-05-19T22:49:28.441Z,19.25
2023-05-19T22:51:55.782Z,19.17
2023-05-19T22:54:23.205Z,19.14
2023-05-19T22:56:50.695Z,19.12
2023-05-19T22:59:18.055Z,19.13
2023-05-19T23:01:46.856Z,19.12
2023-05-19T23:04:14.401Z,19.17
2023-05-19T23:06:41.419Z,19.17
2023-05-19T23:09:08.729Z,19.20
2023-05-19T23:11:36.050Z,19.17
2023-05-19T23:14:03.360Z,19.10
2023-05-19T23:16:30.416Z,19.11
2023-05-19T23:18:57.739Z,19.06
2023-05-19T23:21:24.732Z,19.09
2023-05-19T23:23:52.118Z,19.07
2023-05-19T23:26:19.275Z,19.04
2023-05-19T23:28:46.612Z,19.04
2023-05-19T23:31:13.621Z,19.07
2023-05-19T23:33:41.818Z,19.08
2023-05-19T23:36:10.425Z,19.08
2023-05-19T23:38:38.232Z,19.09
2023-05-19T23:41:05.766Z,19.07
2023-05-19T23:43:33.387Z,19.07
2023-05-19T23:46:01.234Z,18.98
2023-05-19T23:48:29.313Z,18.95
2023-05-19T23:50:58.018Z,18.85
2023-05-19T23:53:25.265Z,18.81
2023-05-19T23:55:52.315Z,18.80
2023-05-19T23:58:19.511Z,18.66
